Tesla, West Virginia
Current Conditions -  °F | °C
As of 8:35 PM on Monday 24 Nov 2014 (Local Time) from KW22 Reporting Station
Clear Clear  
Wind Chill: 57°   Ceiling: Unl
Heat Index: 57°   Visibility: 10mi
Dew Point: 36°   Wind: 14mph
Humidity: 44%   Direction: 250°WSW
Pressure: 29.78"   Gusts: 21mph
Location:  38.5731°N, 80.7117°W
Report Text: KW22 250135Z AUTO 25012G18KT 10SM CLR 14/02 A2978 RMK AO2
Loading
Personal Weather Stations






























Interactive Weather Map New forecast layout! Learn more

10-Day Weather Forecast

Advertisements
Track Severe Weather on mobile